sensor_id;sensor_type;location;lat;lon;timestamp;P1;durP1;ratioP1;P2;durP2;ratioP2
62903;SDS011;49000;50.698;13.322;2023-05-10T00:00:50;4.90;;;3.70;;
62903;SDS011;49000;50.698;13.322;2023-05-10T00:03:15;5.10;;;3.77;;
62903;SDS011;49000;50.698;13.322;2023-05-10T00:05:41;4.80;;;3.20;;
62903;SDS011;49000;50.698;13.322;2023-05-10T00:08:06;4.80;;;3.30;;
62903;SDS011;49000;50.698;13.322;2023-05-10T00:10:32;4.57;;;3.53;;
62903;SDS011;49000;50.698;13.322;2023-05-10T00:12:57;4.47;;;3.50;;
62903;SDS011;49000;50.698;13.322;2023-05-10T00:15:23;4.63;;;3.50;;
62903;SDS011;49000;50.698;13.322;2023-05-10T00:17:48;5.30;;;3.70;;
62903;SDS011;49000;50.698;13.322;2023-05-10T00:20:14;5.70;;;3.43;;
62903;SDS011;49000;50.698;13.322;2023-05-10T00:22:40;6.67;;;3.13;;
62903;SDS011;49000;50.698;13.322;2023-05-10T00:25:05;3.80;;;3.10;;
62903;SDS011;49000;50.698;13.322;2023-05-10T00:27:31;3.80;;;2.90;;
62903;SDS011;49000;50.698;13.322;2023-05-10T00:29:57;4.30;;;3.47;;
62903;SDS011;49000;50.698;13.322;2023-05-10T00:32:22;3.90;;;3.10;;
62903;SDS011;49000;50.698;13.322;2023-05-10T00:34:48;5.40;;;3.90;;
62903;SDS011;49000;50.698;13.322;2023-05-10T00:37:13;4.87;;;3.33;;
62903;SDS011;49000;50.698;13.322;2023-05-10T00:39:39;5.33;;;3.33;;
62903;SDS011;49000;50.698;13.322;2023-05-10T00:42:04;5.13;;;3.30;;
62903;SDS011;49000;50.698;13.322;2023-05-10T00:44:30;5.33;;;3.40;;
62903;SDS011;49000;50.698;13.322;2023-05-10T00:46:56;4.30;;;3.90;;
62903;SDS011;49000;50.698;13.322;2023-05-10T00:49:22;5.13;;;2.90;;
62903;SDS011;49000;50.698;13.322;2023-05-10T00:51:47;4.33;;;2.90;;
62903;SDS011;49000;50.698;13.322;2023-05-10T00:54:14;5.30;;;3.60;;
62903;SDS011;49000;50.698;13.322;2023-05-10T00:56:40;4.47;;;3.23;;
62903;SDS011;49000;50.698;13.322;2023-05-10T00:59:06;4.73;;;3.40;;
62903;SDS011;49000;50.698;13.322;2023-05-10T01:01:35;5.33;;;3.53;;
62903;SDS011;49000;50.698;13.322;2023-05-10T01:04:01;5.57;;;3.40;;
62903;SDS011;49000;50.698;13.322;2023-05-10T01:06:26;5.87;;;3.23;;
62903;SDS011;49000;50.698;13.322;2023-05-10T01:08:52;7.33;;;3.37;;
62903;SDS011;49000;50.698;13.322;2023-05-10T01:11:18;3.23;;;2.83;;
62903;SDS011;49000;50.698;13.322;2023-05-10T01:13:43;4.10;;;3.10;;
62903;SDS011;49000;50.698;13.322;2023-05-10T01:16:15;4.37;;;3.30;;
62903;SDS011;49000;50.698;13.322;2023-05-10T01:18:41;4.07;;;2.90;;
62903;SDS011;49000;50.698;13.322;2023-05-10T01:21:16;4.10;;;3.20;;
62903;SDS011;49000;50.698;13.322;2023-05-10T01:23:55;4.50;;;3.33;;
62903;SDS011;49000;50.698;13.322;2023-05-10T01:30:22;3.30;;;3.00;;
62903;SDS011;49000;50.698;13.322;2023-05-10T01:35:17;3.60;;;3.17;;
62903;SDS011;49000;50.698;13.322;2023-05-10T01:37:52;5.47;;;3.00;;
62903;SDS011;49000;50.698;13.322;2023-05-10T01:40:56;5.90;;;3.30;;
62903;SDS011;49000;50.698;13.322;2023-05-10T01:44:20;4.70;;;3.20;;
62903;SDS011;49000;50.698;13.322;2023-05-10T01:46:43;3.47;;;3.00;;
62903;SDS011;49000;50.698;13.322;2023-05-10T01:49:16;3.07;;;2.47;;
62903;SDS011;49000;50.698;13.322;2023-05-10T01:51:50;4.40;;;2.87;;
62903;SDS011;49000;50.698;13.322;2023-05-10T01:54:19;4.20;;;3.03;;
62903;SDS011;49000;50.698;13.322;2023-05-10T01:57:01;3.23;;;2.80;;
62903;SDS011;49000;50.698;13.322;2023-05-10T01:59:30;5.03;;;2.80;;
62903;SDS011;49000;50.698;13.322;2023-05-10T02:02:01;4.63;;;2.83;;
62903;SDS011;49000;50.698;13.322;2023-05-10T02:04:29;3.40;;;2.80;;
62903;SDS011;49000;50.698;13.322;2023-05-10T02:06:56;5.10;;;2.90;;
62903;SDS011;49000;50.698;13.322;2023-05-10T02:09:22;4.10;;;3.30;;
62903;SDS011;49000;50.698;13.322;2023-05-10T02:11:50;4.37;;;3.00;;
62903;SDS011;49000;50.698;13.322;2023-05-10T02:14:16;3.93;;;2.87;;
62903;SDS011;49000;50.698;13.322;2023-05-10T02:16:44;4.23;;;3.00;;
62903;SDS011;49000;50.698;13.322;2023-05-10T02:19:10;3.57;;;2.97;;
62903;SDS011;49000;50.698;13.322;2023-05-10T02:21:39;4.63;;;3.20;;
62903;SDS011;49000;50.698;13.322;2023-05-10T02:24:05;4.83;;;3.00;;
62903;SDS011;49000;50.698;13.322;2023-05-10T02:26:32;4.67;;;3.03;;
62903;SDS011;49000;50.698;13.322;2023-05-10T02:29:00;3.70;;;2.83;;
62903;SDS011;49000;50.698;13.322;2023-05-10T02:31:28;3.57;;;2.83;;
62903;SDS011;49000;50.698;13.322;2023-05-10T02:33:55;5.70;;;3.07;;
62903;SDS011;49000;50.698;13.322;2023-05-10T02:36:22;3.00;;;2.40;;
62903;SDS011;49000;50.698;13.322;2023-05-10T02:38:48;4.00;;;3.07;;
62903;SDS011;49000;50.698;13.322;2023-05-10T02:41:14;3.10;;;2.30;;
62903;SDS011;49000;50.698;13.322;2023-05-10T02:43:41;3.50;;;2.70;;
62903;SDS011;49000;50.698;13.322;2023-05-10T02:46:07;3.60;;;2.80;;
62903;SDS011;49000;50.698;13.322;2023-05-10T02:48:33;3.93;;;3.00;;
62903;SDS011;49000;50.698;13.322;2023-05-10T02:51:00;5.53;;;2.60;;
62903;SDS011;49000;50.698;13.322;2023-05-10T02:53:31;5.70;;;2.93;;
62903;SDS011;49000;50.698;13.322;2023-05-10T02:55:58;4.20;;;3.20;;
62903;SDS011;49000;50.698;13.322;2023-05-10T02:58:28;6.17;;;3.70;;
62903;SDS011;49000;50.698;13.322;2023-05-10T03:00:54;3.33;;;2.60;;
62903;SDS011;49000;50.698;13.322;2023-05-10T03:03:19;3.93;;;2.80;;
62903;SDS011;49000;50.698;13.322;2023-05-10T03:05:45;4.90;;;2.93;;
62903;SDS011;49000;50.698;13.322;2023-05-10T03:08:11;3.97;;;3.03;;
62903;SDS011;49000;50.698;13.322;2023-05-10T03:10:38;3.87;;;2.60;;
62903;SDS011;49000;50.698;13.322;2023-05-10T03:13:32;4.47;;;3.00;;
62903;SDS011;49000;50.698;13.322;2023-05-10T03:16:10;4.33;;;2.87;;
62903;SDS011;49000;50.698;13.322;2023-05-10T03:18:56;3.30;;;2.90;;
62903;SDS011;49000;50.698;13.322;2023-05-10T03:21:41;5.13;;;2.70;;
62903;SDS011;49000;50.698;13.322;2023-05-10T03:24:12;4.83;;;2.70;;
62903;SDS011;49000;50.698;13.322;2023-05-10T03:26:40;3.27;;;2.80;;
62903;SDS011;49000;50.698;13.322;2023-05-10T03:29:09;4.07;;;3.27;;
62903;SDS011;49000;50.698;13.322;2023-05-10T03:31:36;4.47;;;3.23;;
62903;SDS011;49000;50.698;13.322;2023-05-10T03:34:03;5.07;;;3.23;;
62903;SDS011;49000;50.698;13.322;2023-05-10T03:36:28;3.90;;;3.17;;
62903;SDS011;49000;50.698;13.322;2023-05-10T03:38:53;3.40;;;3.00;;
62903;SDS011;49000;50.698;13.322;2023-05-10T03:41:19;4.07;;;2.90;;
62903;SDS011;49000;50.698;13.322;2023-05-10T03:43:45;3.73;;;2.97;;
62903;SDS011;49000;50.698;13.322;2023-05-10T03:46:11;3.47;;;2.80;;
62903;SDS011;49000;50.698;13.322;2023-05-10T03:48:36;4.93;;;2.87;;
62903;SDS011;49000;50.698;13.322;2023-05-10T03:51:02;3.03;;;2.50;;
62903;SDS011;49000;50.698;13.322;2023-05-10T03:53:28;4.33;;;3.37;;
62903;SDS011;49000;50.698;13.322;2023-05-10T03:55:53;4.27;;;2.90;;
62903;SDS011;49000;50.698;13.322;2023-05-10T03:58:19;3.37;;;2.40;;
62903;SDS011;49000;50.698;13.322;2023-05-10T04:00:45;3.67;;;2.97;;
62903;SDS011;49000;50.698;13.322;2023-05-10T04:03:10;4.17;;;3.23;;
62903;SDS011;49000;50.698;13.322;2023-05-10T04:05:37;3.73;;;3.03;;
62903;SDS011;49000;50.698;13.322;2023-05-10T04:08:03;3.77;;;2.97;;
62903;SDS011;49000;50.698;13.322;2023-05-10T04:10:29;6.43;;;3.63;;
62903;SDS011;49000;50.698;13.322;2023-05-10T04:12:54;4.57;;;2.80;;
62903;SDS011;49000;50.698;13.322;2023-05-10T04:15:20;3.80;;;2.77;;
62903;SDS011;49000;50.698;13.322;2023-05-10T04:17:45;3.17;;;2.50;;
62903;SDS011;49000;50.698;13.322;2023-05-10T04:20:11;3.20;;;2.90;;
62903;SDS011;49000;50.698;13.322;2023-05-10T04:22:37;3.50;;;2.87;;
62903;SDS011;49000;50.698;13.322;2023-05-10T04:25:03;5.17;;;3.43;;
62903;SDS011;49000;50.698;13.322;2023-05-10T04:27:29;4.33;;;3.03;;
62903;SDS011;49000;50.698;13.322;2023-05-10T04:29:55;4.00;;;3.23;;
62903;SDS011;49000;50.698;13.322;2023-05-10T04:32:21;4.90;;;3.23;;
62903;SDS011;49000;50.698;13.322;2023-05-10T04:34:47;3.47;;;2.83;;
62903;SDS011;49000;50.698;13.322;2023-05-10T04:37:12;4.50;;;3.03;;
62903;SDS011;49000;50.698;13.322;2023-05-10T04:39:38;4.37;;;3.13;;
62903;SDS011;49000;50.698;13.322;2023-05-10T04:42:03;3.73;;;3.07;;
62903;SDS011;49000;50.698;13.322;2023-05-10T04:44:30;4.67;;;2.87;;
62903;SDS011;49000;50.698;13.322;2023-05-10T04:46:58;5.60;;;2.73;;
62903;SDS011;49000;50.698;13.322;2023-05-10T04:49:24;3.87;;;2.90;;
62903;SDS011;49000;50.698;13.322;2023-05-10T04:51:49;5.07;;;2.97;;
62903;SDS011;49000;50.698;13.322;2023-05-10T04:54:15;3.23;;;2.77;;
62903;SDS011;49000;50.698;13.322;2023-05-10T04:56:40;7.20;;;2.93;;
62903;SDS011;49000;50.698;13.322;2023-05-10T04:59:06;3.90;;;2.57;;
62903;SDS011;49000;50.698;13.322;2023-05-10T05:01:32;9.07;;;3.13;;
62903;SDS011;49000;50.698;13.322;2023-05-10T05:03:57;3.60;;;2.90;;
62903;SDS011;49000;50.698;13.322;2023-05-10T05:06:24;3.50;;;2.70;;
62903;SDS011;49000;50.698;13.322;2023-05-10T05:08:49;3.87;;;2.70;;
62903;SDS011;49000;50.698;13.322;2023-05-10T05:11:15;4.67;;;2.93;;
62903;SDS011;49000;50.698;13.322;2023-05-10T05:13:44;3.40;;;2.67;;
62903;SDS011;49000;50.698;13.322;2023-05-10T05:16:10;3.57;;;2.90;;
62903;SDS011;49000;50.698;13.322;2023-05-10T05:18:36;3.73;;;2.80;;
62903;SDS011;49000;50.698;13.322;2023-05-10T05:21:01;4.13;;;2.70;;
62903;SDS011;49000;50.698;13.322;2023-05-10T05:23:27;3.50;;;2.90;;
62903;SDS011;49000;50.698;13.322;2023-05-10T05:25:52;4.30;;;2.90;;
62903;SDS011;49000;50.698;13.322;2023-05-10T05:28:19;3.47;;;2.80;;
62903;SDS011;49000;50.698;13.322;2023-05-10T05:30:47;3.67;;;2.60;;
62903;SDS011;49000;50.698;13.322;2023-05-10T05:33:13;4.37;;;2.80;;
62903;SDS011;49000;50.698;13.322;2023-05-10T05:35:39;3.93;;;2.80;;
62903;SDS011;49000;50.698;13.322;2023-05-10T05:38:04;3.87;;;2.97;;
62903;SDS011;49000;50.698;13.322;2023-05-10T05:40:30;3.87;;;2.97;;
62903;SDS011;49000;50.698;13.322;2023-05-10T05:42:55;4.43;;;3.03;;
62903;SDS011;49000;50.698;13.322;2023-05-10T05:45:21;4.10;;;3.17;;
62903;SDS011;49000;50.698;13.322;2023-05-10T05:47:46;3.97;;;2.80;;
62903;SDS011;49000;50.698;13.322;2023-05-10T05:50:12;3.70;;;2.80;;
62903;SDS011;49000;50.698;13.322;2023-05-10T05:52:37;5.90;;;2.53;;
62903;SDS011;49000;50.698;13.322;2023-05-10T05:55:03;5.43;;;2.90;;
62903;SDS011;49000;50.698;13.322;2023-05-10T05:57:29;4.17;;;2.27;;
62903;SDS011;49000;50.698;13.322;2023-05-10T05:59:54;3.40;;;3.10;;
62903;SDS011;49000;50.698;13.322;2023-05-10T06:02:20;3.67;;;3.10;;
62903;SDS011;49000;50.698;13.322;2023-05-10T06:04:45;4.30;;;2.93;;
62903;SDS011;49000;50.698;13.322;2023-05-10T06:07:11;5.57;;;3.03;;
62903;SDS011;49000;50.698;13.322;2023-05-10T06:09:36;5.00;;;2.90;;
62903;SDS011;49000;50.698;13.322;2023-05-10T06:12:02;3.40;;;2.90;;
62903;SDS011;49000;50.698;13.322;2023-05-10T06:14:27;4.30;;;2.57;;
62903;SDS011;49000;50.698;13.322;2023-05-10T06:16:53;3.83;;;2.53;;
62903;SDS011;49000;50.698;13.322;2023-05-10T06:19:18;4.83;;;3.10;;
62903;SDS011;49000;50.698;13.322;2023-05-10T06:21:44;4.63;;;3.27;;
62903;SDS011;49000;50.698;13.322;2023-05-10T06:24:09;3.87;;;3.00;;
62903;SDS011;49000;50.698;13.322;2023-05-10T06:26:35;3.63;;;2.77;;
62903;SDS011;49000;50.698;13.322;2023-05-10T06:29:00;3.50;;;2.73;;
62903;SDS011;49000;50.698;13.322;2023-05-10T06:31:26;3.27;;;2.57;;
62903;SDS011;49000;50.698;13.322;2023-05-10T06:33:51;4.17;;;2.60;;
62903;SDS011;49000;50.698;13.322;2023-05-10T06:36:17;3.90;;;3.10;;
62903;SDS011;49000;50.698;13.322;2023-05-10T06:38:42;4.07;;;2.77;;
62903;SDS011;49000;50.698;13.322;2023-05-10T06:41:08;5.47;;;3.13;;
62903;SDS011;49000;50.698;13.322;2023-05-10T06:43:33;3.77;;;2.93;;
62903;SDS011;49000;50.698;13.322;2023-05-10T06:45:59;6.13;;;3.23;;
62903;SDS011;49000;50.698;13.322;2023-05-10T06:48:25;7.37;;;2.77;;
62903;SDS011;49000;50.698;13.322;2023-05-10T06:50:50;6.37;;;2.50;;
62903;SDS011;49000;50.698;13.322;2023-05-10T06:53:16;5.23;;;2.90;;
62903;SDS011;49000;50.698;13.322;2023-05-10T06:55:41;3.00;;;2.70;;
62903;SDS011;49000;50.698;13.322;2023-05-10T06:58:07;4.47;;;2.77;;
62903;SDS011;49000;50.698;13.322;2023-05-10T07:00:32;5.20;;;2.90;;
62903;SDS011;49000;50.698;13.322;2023-05-10T07:02:58;3.33;;;2.57;;
62903;SDS011;49000;50.698;13.322;2023-05-10T07:05:23;4.20;;;3.00;;
62903;SDS011;49000;50.698;13.322;2023-05-10T07:07:49;5.43;;;3.03;;
62903;SDS011;49000;50.698;13.322;2023-05-10T07:10:14;3.90;;;2.83;;
62903;SDS011;49000;50.698;13.322;2023-05-10T07:12:40;3.67;;;2.57;;
62903;SDS011;49000;50.698;13.322;2023-05-10T07:15:05;3.23;;;2.90;;
62903;SDS011;49000;50.698;13.322;2023-05-10T07:17:31;2.53;;;2.30;;
62903;SDS011;49000;50.698;13.322;2023-05-10T07:19:58;3.47;;;2.70;;
62903;SDS011;49000;50.698;13.322;2023-05-10T07:22:23;4.10;;;2.80;;
62903;SDS011;49000;50.698;13.322;2023-05-10T07:24:49;4.50;;;2.93;;
62903;SDS011;49000;50.698;13.322;2023-05-10T07:27:15;3.43;;;3.13;;
62903;SDS011;49000;50.698;13.322;2023-05-10T07:29:40;3.70;;;2.70;;
62903;SDS011;49000;50.698;13.322;2023-05-10T07:32:06;3.47;;;2.77;;
62903;SDS011;49000;50.698;13.322;2023-05-10T07:34:31;5.17;;;3.03;;
62903;SDS011;49000;50.698;13.322;2023-05-10T07:37:00;3.90;;;3.10;;
62903;SDS011;49000;50.698;13.322;2023-05-10T07:39:26;4.93;;;3.23;;
62903;SDS011;49000;50.698;13.322;2023-05-10T07:41:52;5.10;;;3.30;;
62903;SDS011;49000;50.698;13.322;2023-05-10T07:44:18;3.83;;;3.00;;
62903;SDS011;49000;50.698;13.322;2023-05-10T07:46:45;3.50;;;3.17;;
62903;SDS011;49000;50.698;13.322;2023-05-10T07:49:10;3.70;;;3.00;;
62903;SDS011;49000;50.698;13.322;2023-05-10T07:51:36;6.20;;;3.43;;
62903;SDS011;49000;50.698;13.322;2023-05-10T07:54:01;3.77;;;3.30;;
62903;SDS011;49000;50.698;13.322;2023-05-10T07:56:28;4.27;;;2.93;;
62903;SDS011;49000;50.698;13.322;2023-05-10T07:58:55;4.07;;;3.40;;
62903;SDS011;49000;50.698;13.322;2023-05-10T08:01:21;3.70;;;3.07;;
62903;SDS011;49000;50.698;13.322;2023-05-10T08:03:47;4.10;;;3.00;;
62903;SDS011;49000;50.698;13.322;2023-05-10T08:06:14;5.70;;;3.17;;
62903;SDS011;49000;50.698;13.322;2023-05-10T08:08:40;4.00;;;3.30;;
62903;SDS011;49000;50.698;13.322;2023-05-10T08:11:06;5.77;;;3.17;;
62903;SDS011;49000;50.698;13.322;2023-05-10T08:13:31;4.70;;;3.37;;
62903;SDS011;49000;50.698;13.322;2023-05-10T08:15:57;5.37;;;3.10;;
62903;SDS011;49000;50.698;13.322;2023-05-10T08:18:23;3.97;;;3.17;;
62903;SDS011;49000;50.698;13.322;2023-05-10T08:20:48;5.37;;;3.13;;
62903;SDS011;49000;50.698;13.322;2023-05-10T08:23:14;5.73;;;3.40;;
62903;SDS011;49000;50.698;13.322;2023-05-10T08:25:39;5.47;;;2.80;;
62903;SDS011;49000;50.698;13.322;2023-05-10T08:28:05;3.20;;;2.87;;
62903;SDS011;49000;50.698;13.322;2023-05-10T08:30:30;6.90;;;3.13;;
62903;SDS011;49000;50.698;13.322;2023-05-10T08:32:56;4.43;;;2.90;;
62903;SDS011;49000;50.698;13.322;2023-05-10T08:35:21;4.43;;;3.00;;
62903;SDS011;49000;50.698;13.322;2023-05-10T08:37:47;3.70;;;2.60;;
62903;SDS011;49000;50.698;13.322;2023-05-10T08:40:12;5.23;;;3.10;;
62903;SDS011;49000;50.698;13.322;2023-05-10T08:42:39;3.23;;;2.40;;
62903;SDS011;49000;50.698;13.322;2023-05-10T08:45:08;5.93;;;3.20;;
62903;SDS011;49000;50.698;13.322;2023-05-10T08:47:35;4.43;;;3.10;;
62903;SDS011;49000;50.698;13.322;2023-05-10T08:50:02;6.73;;;3.43;;
62903;SDS011;49000;50.698;13.322;2023-05-10T08:52:28;3.50;;;2.60;;
62903;SDS011;49000;50.698;13.322;2023-05-10T08:54:55;3.37;;;3.00;;
62903;SDS011;49000;50.698;13.322;2023-05-10T08:57:21;4.20;;;3.10;;
62903;SDS011;49000;50.698;13.322;2023-05-10T08:59:47;5.70;;;3.30;;
62903;SDS011;49000;50.698;13.322;2023-05-10T09:02:13;6.60;;;3.57;;
62903;SDS011;49000;50.698;13.322;2023-05-10T09:04:39;4.83;;;3.23;;
62903;SDS011;49000;50.698;13.322;2023-05-10T09:07:04;5.67;;;3.27;;
62903;SDS011;49000;50.698;13.322;2023-05-10T09:09:31;3.93;;;3.27;;
62903;SDS011;49000;50.698;13.322;2023-05-10T09:11:57;4.43;;;3.07;;
62903;SDS011;49000;50.698;13.322;2023-05-10T09:14:23;5.63;;;3.60;;
62903;SDS011;49000;50.698;13.322;2023-05-10T09:16:49;4.73;;;2.97;;
62903;SDS011;49000;50.698;13.322;2023-05-10T09:19:15;5.57;;;2.97;;
62903;SDS011;49000;50.698;13.322;2023-05-10T09:21:41;4.67;;;3.03;;
62903;SDS011;49000;50.698;13.322;2023-05-10T09:24:07;3.43;;;2.90;;
62903;SDS011;49000;50.698;13.322;2023-05-10T09:26:34;3.87;;;3.10;;
62903;SDS011;49000;50.698;13.322;2023-05-10T09:29:00;4.30;;;3.47;;
62903;SDS011;49000;50.698;13.322;2023-05-10T09:31:43;5.40;;;3.60;;
62903;SDS011;49000;50.698;13.322;2023-05-10T09:34:15;3.20;;;2.83;;
62903;SDS011;49000;50.698;13.322;2023-05-10T09:36:51;4.33;;;3.17;;
62903;SDS011;49000;50.698;13.322;2023-05-10T09:39:29;7.33;;;3.40;;
62903;SDS011;49000;50.698;13.322;2023-05-10T09:41:56;4.80;;;3.30;;
62903;SDS011;49000;50.698;13.322;2023-05-10T09:44:22;5.57;;;3.60;;
62903;SDS011;49000;50.698;13.322;2023-05-10T09:46:51;4.30;;;3.57;;
62903;SDS011;49000;50.698;13.322;2023-05-10T09:49:17;4.70;;;3.90;;
62903;SDS011;49000;50.698;13.322;2023-05-10T09:51:44;7.60;;;3.93;;
62903;SDS011;49000;50.698;13.322;2023-05-10T09:54:10;9.70;;;4.00;;
62903;SDS011;49000;50.698;13.322;2023-05-10T09:56:37;3.85;;;3.50;;
62903;SDS011;49000;50.698;13.322;2023-05-10T09:59:05;4.63;;;3.47;;
62903;SDS011;49000;50.698;13.322;2023-05-10T10:01:33;5.33;;;3.60;;
62903;SDS011;49000;50.698;13.322;2023-05-10T10:04:01;4.57;;;3.60;;
62903;SDS011;49000;50.698;13.322;2023-05-10T10:06:37;5.33;;;3.50;;
62903;SDS011;49000;50.698;13.322;2023-05-10T10:09:04;6.78;;;3.65;;
62903;SDS011;49000;50.698;13.322;2023-05-10T10:11:31;5.20;;;4.30;;
62903;SDS011;49000;50.698;13.322;2023-05-10T10:13:57;5.30;;;4.15;;
62903;SDS011;49000;50.698;13.322;2023-05-10T10:16:23;6.10;;;3.85;;
62903;SDS011;49000;50.698;13.322;2023-05-10T10:18:49;6.15;;;4.57;;
62903;SDS011;49000;50.698;13.322;2023-05-10T10:21:15;4.72;;;3.83;;
62903;SDS011;49000;50.698;13.322;2023-05-10T10:23:41;5.93;;;4.30;;
62903;SDS011;49000;50.698;13.322;2023-05-10T10:26:08;4.68;;;4.28;;
62903;SDS011;49000;50.698;13.322;2023-05-10T10:34:26;7.93;;;4.30;;
62903;SDS011;49000;50.698;13.322;2023-05-10T10:36:53;6.00;;;4.78;;
62903;SDS011;49000;50.698;13.322;2023-05-10T10:39:21;4.93;;;4.43;;
62903;SDS011;49000;50.698;13.322;2023-05-10T10:41:53;5.75;;;4.72;;
62903;SDS011;49000;50.698;13.322;2023-05-10T10:55:08;5.65;;;5.05;;
62903;SDS011;49000;50.698;13.322;2023-05-10T10:57:54;6.38;;;4.70;;
62903;SDS011;49000;50.698;13.322;2023-05-10T11:05:23;4.80;;;4.30;;
62903;SDS011;49000;50.698;13.322;2023-05-10T11:07:52;5.47;;;4.85;;
62903;SDS011;49000;50.698;13.322;2023-05-10T11:10:19;4.90;;;4.47;;
62903;SDS011;49000;50.698;13.322;2023-05-10T11:15:30;4.90;;;4.13;;
62903;SDS011;49000;50.698;13.322;2023-05-10T11:17:57;5.68;;;4.38;;
62903;SDS011;49000;50.698;13.322;2023-05-10T11:20:22;5.35;;;4.40;;
62903;SDS011;49000;50.698;13.322;2023-05-10T11:22:57;5.00;;;4.15;;
62903;SDS011;49000;50.698;13.322;2023-05-10T11:25:39;5.00;;;3.85;;
62903;SDS011;49000;50.698;13.322;2023-05-10T11:28:10;3.63;;;3.30;;
62903;SDS011;49000;50.698;13.322;2023-05-10T11:30:37;5.53;;;4.90;;
62903;SDS011;49000;50.698;13.322;2023-05-10T11:33:07;4.40;;;3.70;;
62903;SDS011;49000;50.698;13.322;2023-05-10T11:35:39;6.00;;;3.90;;
62903;SDS011;49000;50.698;13.322;2023-05-10T11:38:06;5.40;;;4.53;;
62903;SDS011;49000;50.698;13.322;2023-05-10T11:40:36;4.72;;;4.22;;
62903;SDS011;49000;50.698;13.322;2023-05-10T11:43:02;6.78;;;4.53;;
62903;SDS011;49000;50.698;13.322;2023-05-10T11:45:28;7.13;;;4.82;;
62903;SDS011;49000;50.698;13.322;2023-05-10T11:47:57;5.70;;;4.93;;
62903;SDS011;49000;50.698;13.322;2023-05-10T11:50:23;5.13;;;4.63;;
62903;SDS011;49000;50.698;13.322;2023-05-10T11:52:55;5.63;;;4.97;;
62903;SDS011;49000;50.698;13.322;2023-05-10T11:55:21;6.90;;;4.68;;
62903;SDS011;49000;50.698;13.322;2023-05-10T11:57:47;6.15;;;5.03;;
62903;SDS011;49000;50.698;13.322;2023-05-10T12:00:16;6.68;;;5.13;;
62903;SDS011;49000;50.698;13.322;2023-05-10T12:02:41;5.95;;;4.85;;
62903;SDS011;49000;50.698;13.322;2023-05-10T12:05:07;6.93;;;5.25;;
62903;SDS011;49000;50.698;13.322;2023-05-10T12:07:33;5.85;;;4.57;;
62903;SDS011;49000;50.698;13.322;2023-05-10T12:10:03;5.70;;;5.20;;
62903;SDS011;49000;50.698;13.322;2023-05-10T12:12:39;9.05;;;5.63;;
62903;SDS011;49000;50.698;13.322;2023-05-10T12:15:19;6.80;;;4.70;;
62903;SDS011;49000;50.698;13.322;2023-05-10T12:17:46;7.45;;;5.72;;
62903;SDS011;49000;50.698;13.322;2023-05-10T12:20:13;7.93;;;5.63;;
62903;SDS011;49000;50.698;13.322;2023-05-10T12:22:40;8.35;;;6.07;;
62903;SDS011;49000;50.698;13.322;2023-05-10T12:25:08;6.07;;;5.47;;
62903;SDS011;49000;50.698;13.322;2023-05-10T12:27:35;6.55;;;5.72;;
62903;SDS011;49000;50.698;13.322;2023-05-10T12:30:00;7.50;;;5.30;;
62903;SDS011;49000;50.698;13.322;2023-05-10T12:32:43;6.90;;;5.32;;
62903;SDS011;49000;50.698;13.322;2023-05-10T12:35:09;7.15;;;5.25;;
62903;SDS011;49000;50.698;13.322;2023-05-10T12:37:35;5.72;;;4.97;;
62903;SDS011;49000;50.698;13.322;2023-05-10T12:40:05;6.50;;;4.82;;
62903;SDS011;49000;50.698;13.322;2023-05-10T12:42:31;6.17;;;4.83;;
62903;SDS011;49000;50.698;13.322;2023-05-10T12:44:57;8.20;;;5.65;;
62903;SDS011;49000;50.698;13.322;2023-05-10T12:47:22;9.73;;;5.47;;
62903;SDS011;49000;50.698;13.322;2023-05-10T12:49:48;5.65;;;4.55;;
62903;SDS011;49000;50.698;13.322;2023-05-10T12:52:13;6.50;;;5.13;;
62903;SDS011;49000;50.698;13.322;2023-05-10T12:54:38;5.70;;;5.10;;
62903;SDS011;49000;50.698;13.322;2023-05-10T12:57:04;5.22;;;4.55;;
62903;SDS011;49000;50.698;13.322;2023-05-10T12:59:30;5.40;;;4.87;;
62903;SDS011;49000;50.698;13.322;2023-05-10T13:01:56;8.33;;;5.37;;
62903;SDS011;49000;50.698;13.322;2023-05-10T13:04:22;6.33;;;5.00;;
62903;SDS011;49000;50.698;13.322;2023-05-10T13:06:47;7.40;;;5.03;;
62903;SDS011;49000;50.698;13.322;2023-05-10T13:09:13;5.55;;;4.70;;
62903;SDS011;49000;50.698;13.322;2023-05-10T13:11:38;5.93;;;4.40;;
62903;SDS011;49000;50.698;13.322;2023-05-10T13:14:04;4.80;;;4.30;;
62903;SDS011;49000;50.698;13.322;2023-05-10T13:16:29;5.60;;;4.20;;
62903;SDS011;49000;50.698;13.322;2023-05-10T13:18:55;6.40;;;4.40;;
62903;SDS011;49000;50.698;13.322;2023-05-10T13:21:21;7.90;;;5.57;;
62903;SDS011;49000;50.698;13.322;2023-05-10T13:23:46;5.03;;;4.53;;
62903;SDS011;49000;50.698;13.322;2023-05-10T13:26:12;6.80;;;4.47;;
62903;SDS011;49000;50.698;13.322;2023-05-10T13:28:37;5.30;;;4.80;;
62903;SDS011;49000;50.698;13.322;2023-05-10T13:31:03;6.67;;;5.00;;
62903;SDS011;49000;50.698;13.322;2023-05-10T13:33:29;5.83;;;5.00;;
62903;SDS011;49000;50.698;13.322;2023-05-10T13:35:55;4.93;;;4.43;;
62903;SDS011;49000;50.698;13.322;2023-05-10T13:38:20;5.73;;;4.10;;
62903;SDS011;49000;50.698;13.322;2023-05-10T13:40:46;5.50;;;4.20;;
62903;SDS011;49000;50.698;13.322;2023-05-10T13:43:11;5.60;;;5.10;;
62903;SDS011;49000;50.698;13.322;2023-05-10T13:45:37;6.70;;;4.70;;
62903;SDS011;49000;50.698;13.322;2023-05-10T13:48:02;5.77;;;4.47;;
62903;SDS011;49000;50.698;13.322;2023-05-10T13:50:29;4.23;;;3.83;;
62903;SDS011;49000;50.698;13.322;2023-05-10T13:52:55;5.13;;;3.73;;
62903;SDS011;49000;50.698;13.322;2023-05-10T13:55:20;4.63;;;4.00;;
62903;SDS011;49000;50.698;13.322;2023-05-10T13:57:46;8.57;;;4.23;;
62903;SDS011;49000;50.698;13.322;2023-05-10T14:00:11;5.00;;;3.90;;
62903;SDS011;49000;50.698;13.322;2023-05-10T14:02:37;5.07;;;4.00;;
62903;SDS011;49000;50.698;13.322;2023-05-10T14:05:03;4.97;;;3.97;;
62903;SDS011;49000;50.698;13.322;2023-05-10T14:07:30;6.00;;;4.07;;
62903;SDS011;49000;50.698;13.322;2023-05-10T14:09:55;4.73;;;3.87;;
62903;SDS011;49000;50.698;13.322;2023-05-10T14:12:21;3.97;;;3.57;;
62903;SDS011;49000;50.698;13.322;2023-05-10T14:14:46;4.30;;;3.63;;
62903;SDS011;49000;50.698;13.322;2023-05-10T14:17:11;4.47;;;3.70;;
62903;SDS011;49000;50.698;13.322;2023-05-10T14:19:37;4.30;;;3.60;;
62903;SDS011;49000;50.698;13.322;2023-05-10T14:22:03;4.30;;;3.70;;
62903;SDS011;49000;50.698;13.322;2023-05-10T14:24:29;4.40;;;3.70;;
62903;SDS011;49000;50.698;13.322;2023-05-10T14:26:54;4.83;;;3.63;;
62903;SDS011;49000;50.698;13.322;2023-05-10T14:29:20;5.03;;;3.43;;
62903;SDS011;49000;50.698;13.322;2023-05-10T14:31:46;4.70;;;3.60;;
62903;SDS011;49000;50.698;13.322;2023-05-10T14:34:11;7.40;;;4.33;;
62903;SDS011;49000;50.698;13.322;2023-05-10T14:36:37;5.00;;;3.40;;
62903;SDS011;49000;50.698;13.322;2023-05-10T14:39:02;7.60;;;3.40;;
62903;SDS011;49000;50.698;13.322;2023-05-10T14:41:28;4.73;;;3.77;;
62903;SDS011;49000;50.698;13.322;2023-05-10T14:43:55;4.80;;;3.80;;
62903;SDS011;49000;50.698;13.322;2023-05-10T14:46:20;3.60;;;3.10;;
62903;SDS011;49000;50.698;13.322;2023-05-10T14:48:46;4.50;;;3.20;;
62903;SDS011;49000;50.698;13.322;2023-05-10T14:51:11;4.33;;;3.23;;
62903;SDS011;49000;50.698;13.322;2023-05-10T14:53:37;3.83;;;3.10;;
62903;SDS011;49000;50.698;13.322;2023-05-10T14:56:02;3.20;;;2.73;;
62903;SDS011;49000;50.698;13.322;2023-05-10T14:58:28;3.67;;;3.03;;
62903;SDS011;49000;50.698;13.322;2023-05-10T15:00:54;3.63;;;3.10;;
62903;SDS011;49000;50.698;13.322;2023-05-10T15:03:19;2.93;;;2.50;;